Time;durP1;ratioP1;P1;durP2;ratioP2;P2;SDS_P1;SDS_P2;PMS_P1;PMS_P2;Temp;Humidity;BMP_temperature;BMP_pressure;BME280_temperature;BME280_humidity;BME280_pressure;Samples;Min_cycle;Max_cycle;Signal;HPM_P1;HPM_P2
2023/12/24 00:01:00;;;;;;;1.40;1.30;;;;;;;;;;4990706;28;20215;-75
2023/12/24 00:03:25;;;;;;;2.07;1.70;;;;;;;;;;4989656;28;20185;-75
2023/12/24 00:05:50;;;;;;;1.83;1.40;;;;;;;;;;4986598;28;20184;-75
2023/12/24 00:08:15;;;;;;;1.30;1.20;;;;;;;;;;4990973;28;20168;-75
2023/12/24 00:10:40;;;;;;;1.27;1.13;;;;;;;;;;5006160;28;20277;-75
2023/12/24 00:13:06;;;;;;;1.43;1.33;;;;;;;;;;4988907;28;20173;-76
2023/12/24 00:15:31;;;;;;;1.47;1.30;;;;;;;;;;5001732;28;20183;-75
2023/12/24 00:17:56;;;;;;;1.57;1.30;;;;;;;;;;5005149;28;20203;-75
2023/12/24 00:20:21;;;;;;;1.30;1.20;;;;;;;;;;4985095;28;20288;-75
2023/12/24 00:23:02;;;;;;;1.67;1.33;;;;;;;;;;4989210;28;20233;-75
2023/12/24 00:25:28;;;;;;;1.37;1.27;;;;;;;;;;5004052;28;20184;-75
2023/12/24 00:27:53;;;;;;;1.50;1.40;;;;;;;;;;4973756;28;20194;-75
2023/12/24 00:30:19;;;;;;;1.40;1.30;;;;;;;;;;4986787;28;20214;-75
2023/12/24 00:32:44;;;;;;;2.00;1.40;;;;;;;;;;4983852;28;20182;-75
2023/12/24 00:35:10;;;;;;;1.67;1.47;;;;;;;;;;4982028;28;20188;-75
2023/12/24 00:37:36;;;;;;;1.50;1.40;;;;;;;;;;4993869;28;20199;-75
2023/12/24 00:40:01;;;;;;;2.80;1.57;;;;;;;;;;4988228;28;20203;-75
2023/12/24 00:42:26;;;;;;;1.47;1.37;;;;;;;;;;4987590;28;20195;-75
2023/12/24 00:44:52;;;;;;;2.17;1.60;;;;;;;;;;4981593;28;20183;-75
2023/12/24 00:47:17;;;;;;;1.60;1.50;;;;;;;;;;4980786;28;20186;-76
2023/12/24 00:49:42;;;;;;;2.37;1.60;;;;;;;;;;4985882;28;20178;-75
2023/12/24 00:52:07;;;;;;;1.63;1.53;;;;;;;;;;4984873;28;20187;-75
2023/12/24 00:54:33;;;;;;;2.60;1.80;;;;;;;;;;4984331;28;20192;-75
2023/12/24 00:56:58;;;;;;;3.07;1.50;;;;;;;;;;4980903;28;20201;-75
2023/12/24 00:59:23;;;;;;;1.53;1.30;;;;;;;;;;5010094;28;20190;-75
2023/12/24 01:01:48;;;;;;;2.20;1.80;;;;;;;;;;4983728;28;20208;-75
2023/12/24 01:04:13;;;;;;;3.40;2.40;;;;;;;;;;4987032;28;20186;-75
2023/12/24 01:06:39;;;;;;;2.50;1.50;;;;;;;;;;4985365;28;20239;-75
2023/12/24 01:09:04;;;;;;;1.57;1.47;;;;;;;;;;5006325;28;20301;-76
2023/12/24 01:11:29;;;;;;;2.00;1.80;;;;;;;;;;4981306;28;20518;-75
2023/12/24 01:13:54;;;;;;;1.60;1.50;;;;;;;;;;4985607;28;20250;-75
2023/12/24 01:16:20;;;;;;;2.23;1.70;;;;;;;;;;4987705;28;20209;-75
2023/12/24 01:18:46;;;;;;;2.50;2.30;;;;;;;;;;4992872;28;20189;-75
2023/12/24 01:21:11;;;;;;;3.23;2.30;;;;;;;;;;4989189;28;20229;-75
2023/12/24 01:23:36;;;;;;;2.80;2.07;;;;;;;;;;4995327;28;20179;-75
2023/12/24 01:26:01;;;;;;;3.60;1.70;;;;;;;;;;4984302;28;20174;-75
2023/12/24 01:28:27;;;;;;;3.17;2.00;;;;;;;;;;4982565;28;20187;-75
2023/12/24 01:30:52;;;;;;;3.33;2.57;;;;;;;;;;4993533;28;20181;-76
2023/12/24 01:33:17;;;;;;;2.30;1.60;;;;;;;;;;4987458;28;20201;-75
2023/12/24 01:35:43;;;;;;;2.27;1.50;;;;;;;;;;5009307;28;20213;-75
2023/12/24 01:38:08;;;;;;;2.10;1.67;;;;;;;;;;4981379;28;20198;-75
2023/12/24 01:40:34;;;;;;;1.80;1.70;;;;;;;;;;5007605;28;20210;-75
2023/12/24 01:42:59;;;;;;;1.50;1.40;;;;;;;;;;4993973;28;20181;-75
2023/12/24 01:45:24;;;;;;;1.50;1.30;;;;;;;;;;4988205;28;20207;-75
2023/12/24 01:47:49;;;;;;;2.47;1.47;;;;;;;;;;4985859;28;20272;-75
2023/12/24 01:50:14;;;;;;;2.10;1.60;;;;;;;;;;4987169;28;20181;-75
2023/12/24 01:52:41;;;;;;;1.40;1.30;;;;;;;;;;4989829;28;20212;-75
2023/12/24 01:55:06;;;;;;;1.40;1.30;;;;;;;;;;4989927;28;20182;-75
2023/12/24 01:57:32;;;;;;;1.83;1.33;;;;;;;;;;5005745;28;20203;-75
2023/12/24 01:59:57;;;;;;;3.43;1.43;;;;;;;;;;4988252;28;20191;-75
2023/12/24 02:02:24;;;;;;;1.70;1.27;;;;;;;;;;4981450;28;20502;-75
2023/12/24 02:04:49;;;;;;;1.43;1.33;;;;;;;;;;4991043;28;20267;-75
2023/12/24 02:07:15;;;;;;;1.30;1.20;;;;;;;;;;4987755;28;20282;-75
2023/12/24 02:09:41;;;;;;;1.27;1.17;;;;;;;;;;5001423;28;20183;-75
2023/12/24 02:12:07;;;;;;;1.63;1.37;;;;;;;;;;4978884;28;21394;-75
2023/12/24 02:14:32;;;;;;;1.80;1.30;;;;;;;;;;4986177;28;20272;-75
2023/12/24 02:16:59;;;;;;;1.57;1.30;;;;;;;;;;4989669;28;20198;-75
2023/12/24 02:19:25;;;;;;;1.23;1.13;;;;;;;;;;4990578;28;20200;-75
2023/12/24 02:21:50;;;;;;;1.70;1.60;;;;;;;;;;5010032;28;20328;-75
2023/12/24 02:24:16;;;;;;;1.50;1.30;;;;;;;;;;4983786;28;20295;-75
2023/12/24 02:26:53;;;;;;;2.33;1.37;;;;;;;;;;4988561;28;20195;-75
2023/12/24 02:29:31;;;;;;;1.53;1.40;;;;;;;;;;4993624;28;20209;-75
2023/12/24 02:32:07;;;;;;;2.30;1.83;;;;;;;;;;4987503;28;20177;-75
2023/12/24 02:34:33;;;;;;;1.70;1.60;;;;;;;;;;4982497;28;20185;-75
2023/12/24 02:36:58;;;;;;;1.87;1.70;;;;;;;;;;4981231;28;20206;-75
2023/12/24 02:39:23;;;;;;;1.20;1.10;;;;;;;;;;4992715;28;20187;-75
2023/12/24 02:41:48;;;;;;;1.50;1.40;;;;;;;;;;4982952;28;20180;-75
2023/12/24 02:44:14;;;;;;;1.47;1.37;;;;;;;;;;4984423;28;20504;-75
2023/12/24 02:46:39;;;;;;;1.27;1.17;;;;;;;;;;4980726;28;20583;-75
2023/12/24 02:49:04;;;;;;;3.70;3.07;;;;;;;;;;4984892;28;20262;-75
2023/12/24 02:51:29;;;;;;;3.50;2.20;;;;;;;;;;4988741;28;20251;-75
2023/12/24 02:53:54;;;;;;;1.70;1.60;;;;;;;;;;5002739;28;20199;-75
2023/12/24 02:56:20;;;;;;;1.50;1.40;;;;;;;;;;4989191;28;20183;-75
2023/12/24 02:58:45;;;;;;;1.87;1.50;;;;;;;;;;5003059;28;20199;-75
2023/12/24 03:01:10;;;;;;;1.40;1.30;;;;;;;;;;5000254;28;20180;-76
2023/12/24 03:03:35;;;;;;;1.30;1.20;;;;;;;;;;4985629;28;20230;-75
2023/12/24 03:06:00;;;;;;;1.50;1.40;;;;;;;;;;4981310;28;20189;-75
2023/12/24 03:08:26;;;;;;;1.67;1.50;;;;;;;;;;4981597;28;20188;-75
2023/12/24 03:10:51;;;;;;;1.93;1.80;;;;;;;;;;4999162;28;20191;-75
2023/12/24 03:13:16;;;;;;;1.80;1.70;;;;;;;;;;4986866;28;20273;-75
2023/12/24 03:15:41;;;;;;;1.90;1.80;;;;;;;;;;4985280;28;20182;-74
2023/12/24 03:18:08;;;;;;;1.50;1.40;;;;;;;;;;5000335;28;20330;-75
2023/12/24 03:20:33;;;;;;;2.30;2.10;;;;;;;;;;5003765;28;20325;-75
2023/12/24 03:22:58;;;;;;;2.57;1.77;;;;;;;;;;4988231;28;20198;-75
2023/12/24 03:25:23;;;;;;;1.97;1.87;;;;;;;;;;4979190;28;20179;-75
2023/12/24 03:27:48;;;;;;;2.17;2.07;;;;;;;;;;4980233;28;20241;-75
2023/12/24 03:30:14;;;;;;;2.03;1.92;;;;;;;;;;4983734;28;20180;-75
2023/12/24 03:32:39;;;;;;;1.93;1.83;;;;;;;;;;5000897;28;20197;-75
2023/12/24 03:35:05;;;;;;;2.03;1.93;;;;;;;;;;4983757;28;20182;-75
2023/12/24 03:37:30;;;;;;;2.10;1.90;;;;;;;;;;4981997;28;20206;-75
2023/12/24 03:39:55;;;;;;;1.70;1.60;;;;;;;;;;4979982;28;20179;-76
2023/12/24 03:42:20;;;;;;;2.07;1.87;;;;;;;;;;4984507;28;20207;-75
2023/12/24 03:44:46;;;;;;;2.03;1.93;;;;;;;;;;5004904;28;20204;-75
2023/12/24 03:47:11;;;;;;;3.00;2.03;;;;;;;;;;4979642;28;20185;-75
2023/12/24 03:49:36;;;;;;;2.03;1.93;;;;;;;;;;4981584;28;20177;-75
2023/12/24 03:52:01;;;;;;;2.73;2.20;;;;;;;;;;5002662;28;20177;-75
2023/12/24 03:54:26;;;;;;;2.50;2.30;;;;;;;;;;4996321;28;20186;-75
2023/12/24 03:56:52;;;;;;;2.40;2.20;;;;;;;;;;4981329;28;20289;-75
2023/12/24 03:59:17;;;;;;;1.90;1.80;;;;;;;;;;4984938;28;20497;-75
2023/12/24 04:01:43;;;;;;;1.90;1.80;;;;;;;;;;4978153;28;20202;-75
2023/12/24 04:04:08;;;;;;;2.83;2.00;;;;;;;;;;4986176;28;20192;-75
2023/12/24 04:06:33;;;;;;;1.90;1.80;;;;;;;;;;4975155;28;20181;-74
2023/12/24 04:08:58;;;;;;;1.73;1.63;;;;;;;;;;4988374;28;20233;-75
2023/12/24 04:11:24;;;;;;;1.90;1.80;;;;;;;;;;4983499;28;20191;-75
2023/12/24 04:13:49;;;;;;;1.90;1.80;;;;;;;;;;4988091;28;20183;-75
2023/12/24 04:16:17;;;;;;;2.53;2.10;;;;;;;;;;4980382;28;20192;-75
2023/12/24 04:18:42;;;;;;;2.37;2.17;;;;;;;;;;5001613;28;20268;-75
2023/12/24 04:21:07;;;;;;;1.93;1.73;;;;;;;;;;4998535;28;20218;-75
2023/12/24 04:23:32;;;;;;;1.97;1.87;;;;;;;;;;5004200;28;20202;-75
2023/12/24 04:25:57;;;;;;;2.30;2.10;;;;;;;;;;5007380;28;20181;-75
2023/12/24 04:28:24;;;;;;;1.77;1.67;;;;;;;;;;5003031;28;20182;-75
2023/12/24 04:30:49;;;;;;;2.17;1.87;;;;;;;;;;5001654;28;20178;-75
2023/12/24 04:33:14;;;;;;;2.23;1.67;;;;;;;;;;5001618;28;20190;-75
2023/12/24 04:35:39;;;;;;;2.17;1.93;;;;;;;;;;4988396;28;20239;-75
2023/12/24 04:38:05;;;;;;;2.90;2.47;;;;;;;;;;4990196;28;20216;-75
2023/12/24 04:40:30;;;;;;;3.47;2.00;;;;;;;;;;5005627;28;20198;-75
2023/12/24 04:42:55;;;;;;;2.20;2.00;;;;;;;;;;4986899;28;20231;-75
2023/12/24 04:45:20;;;;;;;1.60;1.50;;;;;;;;;;4985868;28;20272;-75
2023/12/24 04:47:46;;;;;;;2.47;2.13;;;;;;;;;;4985087;28;20183;-75
2023/12/24 04:50:11;;;;;;;1.17;1.10;;;;;;;;;;5006768;28;20207;-75
2023/12/24 04:52:37;;;;;;;1.27;1.17;;;;;;;;;;4989380;28;20244;-75
2023/12/24 04:55:04;;;;;;;1.53;1.17;;;;;;;;;;5007511;28;20190;-75
2023/12/24 04:57:29;;;;;;;1.03;1.00;;;;;;;;;;4982803;28;20199;-75
2023/12/24 04:59:54;;;;;;;1.50;1.40;;;;;;;;;;4986358;28;20273;-75
2023/12/24 05:02:19;;;;;;;1.10;1.10;;;;;;;;;;4986453;28;20174;-75
2023/12/24 05:04:45;;;;;;;0.90;0.90;;;;;;;;;;5006454;28;20185;-75
2023/12/24 05:07:10;;;;;;;0.80;0.80;;;;;;;;;;4999221;28;20192;-75
2023/12/24 05:09:35;;;;;;;0.60;0.60;;;;;;;;;;4990052;28;20217;-75
2023/12/24 05:12:00;;;;;;;1.17;0.70;;;;;;;;;;4989850;28;20325;-75
2023/12/24 05:14:25;;;;;;;1.00;1.00;;;;;;;;;;4979231;28;20186;-75
2023/12/24 05:16:51;;;;;;;0.57;0.57;;;;;;;;;;5005207;28;20218;-75
2023/12/24 05:19:16;;;;;;;0.50;0.50;;;;;;;;;;5002836;28;20198;-75
2023/12/24 05:21:41;;;;;;;0.60;0.60;;;;;;;;;;4983249;28;20231;-75
2023/12/24 05:24:06;;;;;;;0.70;0.70;;;;;;;;;;4986700;28;20182;-75
2023/12/24 05:26:31;;;;;;;0.77;0.77;;;;;;;;;;4982343;28;20185;-76
2023/12/24 05:28:57;;;;;;;0.70;0.70;;;;;;;;;;4988140;28;20193;-75
2023/12/24 05:31:22;;;;;;;1.23;0.90;;;;;;;;;;4985757;28;20253;-75
2023/12/24 05:33:47;;;;;;;1.03;0.93;;;;;;;;;;4984028;28;20182;-75
2023/12/24 05:36:13;;;;;;;1.17;1.00;;;;;;;;;;4985525;28;20216;-75
2023/12/24 05:38:38;;;;;;;0.80;0.80;;;;;;;;;;4980064;28;20216;-75
2023/12/24 05:41:04;;;;;;;0.93;0.87;;;;;;;;;;4985798;28;20175;-75
2023/12/24 05:43:29;;;;;;;0.73;0.73;;;;;;;;;;4998397;28;20185;-75
2023/12/24 05:45:54;;;;;;;0.80;0.80;;;;;;;;;;4990913;28;20175;-74
2023/12/24 05:48:19;;;;;;;0.60;0.60;;;;;;;;;;4987679;28;20202;-75
2023/12/24 05:50:44;;;;;;;1.07;1.00;;;;;;;;;;4986427;28;20412;-75
2023/12/24 05:53:10;;;;;;;1.50;1.30;;;;;;;;;;4990046;28;20179;-75
2023/12/24 05:55:35;;;;;;;1.03;1.00;;;;;;;;;;4980629;28;20211;-75
2023/12/24 05:58:00;;;;;;;5.23;1.17;;;;;;;;;;4986609;28;20334;-75
2023/12/24 06:00:25;;;;;;;2.07;1.73;;;;;;;;;;4976809;28;20199;-75
2023/12/24 06:02:51;;;;;;;1.60;1.43;;;;;;;;;;4988289;28;20177;-75
2023/12/24 06:05:16;;;;;;;1.83;1.17;;;;;;;;;;4982327;28;20247;-75
2023/12/24 06:07:41;;;;;;;0.70;0.70;;;;;;;;;;4985549;28;20186;-75
2023/12/24 06:10:06;;;;;;;0.90;0.90;;;;;;;;;;4996464;28;20182;-75
2023/12/24 06:12:32;;;;;;;0.97;0.90;;;;;;;;;;4988253;28;20248;-75
2023/12/24 06:14:58;;;;;;;1.20;1.10;;;;;;;;;;5003406;28;20191;-75
2023/12/24 06:17:23;;;;;;;1.87;1.17;;;;;;;;;;4984899;28;20307;-75
2023/12/24 06:19:48;;;;;;;1.17;1.10;;;;;;;;;;4989379;28;20232;-75
2023/12/24 06:22:13;;;;;;;0.83;0.83;;;;;;;;;;4981918;28;20254;-75
2023/12/24 06:24:38;;;;;;;0.80;0.80;;;;;;;;;;4988422;28;20176;-75
2023/12/24 06:27:04;;;;;;;0.80;0.80;;;;;;;;;;4983615;28;20188;-75
2023/12/24 06:29:29;;;;;;;0.80;0.80;;;;;;;;;;5003143;28;20188;-75
2023/12/24 06:31:55;;;;;;;1.00;1.00;;;;;;;;;;4977580;28;20206;-75
2023/12/24 06:34:20;;;;;;;1.47;1.00;;;;;;;;;;5003546;28;20198;-75
2023/12/24 06:36:45;;;;;;;1.63;1.33;;;;;;;;;;4989388;28;20260;-75
2023/12/24 06:39:11;;;;;;;1.23;0.97;;;;;;;;;;5005208;28;20173;-74
2023/12/24 06:41:37;;;;;;;1.03;1.03;;;;;;;;;;4990864;28;20184;-74
2023/12/24 06:44:02;;;;;;;0.80;0.80;;;;;;;;;;5004922;28;20186;-74
2023/12/24 06:46:27;;;;;;;0.97;0.97;;;;;;;;;;4978383;28;20230;-74
2023/12/24 06:48:52;;;;;;;1.93;1.00;;;;;;;;;;5004104;28;20183;-75
2023/12/24 06:51:18;;;;;;;0.80;0.80;;;;;;;;;;5003512;28;20184;-75
2023/12/24 06:53:43;;;;;;;0.50;0.50;;;;;;;;;;4988202;28;20233;-75
2023/12/24 06:56:08;;;;;;;0.80;0.80;;;;;;;;;;4982209;28;20183;-74
2023/12/24 06:58:34;;;;;;;0.50;0.50;;;;;;;;;;4988065;28;20253;-74
2023/12/24 07:00:59;;;;;;;1.40;1.03;;;;;;;;;;4989507;28;20191;-75
2023/12/24 07:03:24;;;;;;;0.77;0.77;;;;;;;;;;4982887;28;20183;-75
2023/12/24 07:05:50;;;;;;;0.93;0.87;;;;;;;;;;4986381;28;20176;-74
2023/12/24 07:08:15;;;;;;;0.80;0.80;;;;;;;;;;4981384;28;20187;-74
2023/12/24 07:10:40;;;;;;;0.60;0.60;;;;;;;;;;4992139;28;20189;-74
2023/12/24 07:13:05;;;;;;;0.60;0.60;;;;;;;;;;4984985;28;20203;-75
2023/12/24 07:15:37;;;;;;;0.60;0.60;;;;;;;;;;4982520;28;20182;-75
2023/12/24 07:18:03;;;;;;;0.60;0.60;;;;;;;;;;4984404;28;20299;-74
2023/12/24 07:20:28;;;;;;;0.77;0.60;;;;;;;;;;4986454;28;20400;-74
2023/12/24 07:22:53;;;;;;;0.97;0.77;;;;;;;;;;4993595;28;20176;-75
2023/12/24 07:25:18;;;;;;;1.00;0.90;;;;;;;;;;4972919;28;20274;-75
2023/12/24 07:27:44;;;;;;;0.67;0.67;;;;;;;;;;4990110;28;20461;-74
2023/12/24 07:30:10;;;;;;;0.83;0.60;;;;;;;;;;4967733;28;20549;-75
2023/12/24 07:32:35;;;;;;;1.83;1.00;;;;;;;;;;4990620;28;20188;-75
2023/12/24 07:35:00;;;;;;;0.50;0.50;;;;;;;;;;4992398;28;20201;-74
2023/12/24 07:37:25;;;;;;;0.70;0.70;;;;;;;;;;4971955;28;20220;-74
2023/12/24 07:39:50;;;;;;;0.80;0.70;;;;;;;;;;4974310;28;20183;-74
2023/12/24 07:42:16;;;;;;;0.70;0.60;;;;;;;;;;4973841;28;20184;-75
2023/12/24 07:44:41;;;;;;;0.73;0.70;;;;;;;;;;4971927;28;20173;-75
2023/12/24 07:47:06;;;;;;;0.87;0.53;;;;;;;;;;4986944;28;20182;-75
2023/12/24 07:49:32;;;;;;;0.67;0.63;;;;;;;;;;4971767;28;20194;-75
2023/12/24 07:51:57;;;;;;;0.77;0.77;;;;;;;;;;4971732;28;20187;-74
2023/12/24 07:54:22;;;;;;;0.60;0.60;;;;;;;;;;4991924;28;20183;-75
2023/12/24 07:56:47;;;;;;;0.80;0.67;;;;;;;;;;4987626;28;20535;-75
2023/12/24 07:59:12;;;;;;;0.67;0.67;;;;;;;;;;4975930;28;20294;-74
2023/12/24 08:01:38;;;;;;;0.70;0.70;;;;;;;;;;4968007;28;20214;-74
2023/12/24 08:04:03;;;;;;;0.47;0.47;;;;;;;;;;4977247;28;20238;-75
2023/12/24 08:06:29;;;;;;;0.50;0.50;;;;;;;;;;4972986;28;20184;-75
2023/12/24 08:08:54;;;;;;;0.50;0.50;;;;;;;;;;4982332;28;20172;-74
2023/12/24 08:11:19;;;;;;;0.63;0.53;;;;;;;;;;4986523;28;21310;-74
2023/12/24 08:13:44;;;;;;;0.50;0.50;;;;;;;;;;4983217;28;20189;-75
2023/12/24 08:16:09;;;;;;;0.37;0.37;;;;;;;;;;4968907;28;20179;-75
2023/12/24 08:18:37;;;;;;;1.57;1.10;;;;;;;;;;4971281;28;20637;-74
2023/12/24 08:21:02;;;;;;;0.60;0.60;;;;;;;;;;4980984;28;20316;-74
2023/12/24 08:23:28;;;;;;;0.50;0.50;;;;;;;;;;5004597;28;20257;-74
2023/12/24 08:25:53;;;;;;;0.60;0.60;;;;;;;;;;4988771;28;20187;-74
2023/12/24 08:28:18;;;;;;;0.80;0.80;;;;;;;;;;4999827;28;20181;-74
2023/12/24 08:30:43;;;;;;;0.33;0.33;;;;;;;;;;4986903;28;20242;-74
2023/12/24 08:33:08;;;;;;;0.40;0.40;;;;;;;;;;5004328;28;20264;-74
2023/12/24 08:35:34;;;;;;;0.53;0.50;;;;;;;;;;5009762;28;20207;-74
2023/12/24 08:37:59;;;;;;;1.83;0.63;;;;;;;;;;5005505;28;20210;-74
2023/12/24 08:40:27;;;;;;;0.50;0.50;;;;;;;;;;4996704;28;20310;-75
2023/12/24 08:42:52;;;;;;;0.60;0.60;;;;;;;;;;5003761;28;20179;-75
2023/12/24 08:45:18;;;;;;;0.40;0.40;;;;;;;;;;5001674;28;20185;-75
2023/12/24 08:47:43;;;;;;;0.47;0.47;;;;;;;;;;5005787;28;20195;-74
2023/12/24 08:50:08;;;;;;;0.87;0.87;;;;;;;;;;4994021;28;20202;-75
2023/12/24 08:52:34;;;;;;;0.67;0.67;;;;;;;;;;5005105;28;20243;-74
2023/12/24 08:54:59;;;;;;;0.40;0.40;;;;;;;;;;5001686;28;20254;-74
2023/12/24 08:57:24;;;;;;;0.60;0.60;;;;;;;;;;5003870;28;20194;-74
2023/12/24 08:59:49;;;;;;;0.60;0.60;;;;;;;;;;4999763;28;20245;-74
2023/12/24 09:02:15;;;;;;;0.60;0.60;;;;;;;;;;5003113;28;20172;-74
2023/12/24 09:04:40;;;;;;;1.33;0.90;;;;;;;;;;4996190;28;20177;-75
2023/12/24 09:07:05;;;;;;;0.40;0.40;;;;;;;;;;5005798;28;20191;-74
2023/12/24 09:09:30;;;;;;;0.50;0.50;;;;;;;;;;5000349;28;20178;-74
2023/12/24 09:11:55;;;;;;;0.50;0.50;;;;;;;;;;5007749;28;20182;-75
2023/12/24 09:14:21;;;;;;;0.87;0.87;;;;;;;;;;5006557;28;20188;-75
2023/12/24 09:16:46;;;;;;;0.43;0.43;;;;;;;;;;5005153;28;20205;-74
2023/12/24 09:19:11;;;;;;;0.73;0.73;;;;;;;;;;5009008;28;20221;-74
2023/12/24 09:21:36;;;;;;;0.83;0.83;;;;;;;;;;5005860;28;20371;-74
2023/12/24 09:24:02;;;;;;;0.70;0.70;;;;;;;;;;5006326;28;20175;-74
2023/12/24 09:26:27;;;;;;;0.40;0.40;;;;;;;;;;5026287;28;20250;-74
2023/12/24 09:28:52;;;;;;;0.60;0.60;;;;;;;;;;5025333;28;20180;-74
2023/12/24 09:31:17;;;;;;;0.40;0.40;;;;;;;;;;5008678;28;20180;-74
2023/12/24 09:33:42;;;;;;;0.60;0.60;;;;;;;;;;5008496;28;20189;-74
2023/12/24 09:36:08;;;;;;;1.20;1.10;;;;;;;;;;5009872;28;20207;-75
2023/12/24 09:38:34;;;;;;;0.77;0.77;;;;;;;;;;5004344;28;20391;-74
2023/12/24 09:40:59;;;;;;;0.20;0.20;;;;;;;;;;5025454;28;20270;-74
2023/12/24 09:43:28;;;;;;;0.80;0.80;;;;;;;;;;5004673;28;20190;-74
2023/12/24 09:45:53;;;;;;;0.80;0.80;;;;;;;;;;5010587;28;20181;-74
2023/12/24 09:48:18;;;;;;;0.30;0.30;;;;;;;;;;5027158;28;20181;-74
2023/12/24 09:50:43;;;;;;;0.90;0.90;;;;;;;;;;5018443;28;20189;-74
2023/12/24 09:53:09;;;;;;;0.50;0.50;;;;;;;;;;5004723;28;20281;-74
2023/12/24 09:55:35;;;;;;;1.50;0.50;;;;;;;;;;5001449;28;20192;-75
2023/12/24 09:58:00;;;;;;;0.50;0.50;;;;;;;;;;5006004;28;20233;-74
2023/12/24 10:00:25;;;;;;;0.40;0.40;;;;;;;;;;5007787;28;20299;-74
2023/12/24 10:02:50;;;;;;;0.27;0.27;;;;;;;;;;5005123;28;20214;-74
2023/12/24 10:05:15;;;;;;;0.30;0.30;;;;;;;;;;5001926;28;20616;-74
2023/12/24 10:07:43;;;;;;;0.43;0.43;;;;;;;;;;5018633;28;20212;-75
2023/12/24 10:10:09;;;;;;;0.30;0.30;;;;;;;;;;5021364;28;20188;-74
2023/12/24 10:12:34;;;;;;;2.90;2.03;;;;;;;;;;5005524;28;20185;-74
2023/12/24 10:15:00;;;;;;;0.53;0.53;;;;;;;;;;5001576;28;20194;-74
2023/12/24 10:17:32;;;;;;;1.00;0.90;;;;;;;;;;4999242;28;20218;-74
2023/12/24 10:19:57;;;;;;;1.30;1.20;;;;;;;;;;5001773;28;20228;-74
2023/12/24 10:22:23;;;;;;;0.83;0.83;;;;;;;;;;5025306;28;20437;-74
2023/12/24 10:24:49;;;;;;;1.97;1.83;;;;;;;;;;5030390;28;20178;-74
2023/12/24 10:27:15;;;;;;;0.47;0.47;;;;;;;;;;5007150;28;20175;-74
2023/12/24 10:29:41;;;;;;;4.43;4.03;;;;;;;;;;5006766;28;20192;-74
2023/12/24 10:32:09;;;;;;;1.20;1.10;;;;;;;;;;5006099;28;20214;-74
2023/12/24 10:34:35;;;;;;;1.00;1.00;;;;;;;;;;5025069;28;20181;-74
2023/12/24 10:37:21;;;;;;;0.93;0.93;;;;;;;;;;5010210;28;20218;-74
2023/12/24 10:39:46;;;;;;;1.33;0.77;;;;;;;;;;5016773;28;20185;-74
2023/12/24 10:42:12;;;;;;;1.37;1.27;;;;;;;;;;5014270;28;20186;-74
2023/12/24 10:44:39;;;;;;;0.57;0.57;;;;;;;;;;5012859;28;20202;-74
2023/12/24 10:47:04;;;;;;;2.87;2.60;;;;;;;;;;5027796;28;20193;-74
2023/12/24 10:49:29;;;;;;;5.97;5.00;;;;;;;;;;5025379;28;20183;-74
2023/12/24 10:51:56;;;;;;;1.27;1.17;;;;;;;;;;5014131;28;20189;-74
2023/12/24 10:54:21;;;;;;;0.80;0.80;;;;;;;;;;5021335;28;20173;-74
2023/12/24 10:56:54;;;;;;;3.00;2.70;;;;;;;;;;5024816;28;20290;-74
2023/12/24 10:59:39;;;;;;;1.33;1.27;;;;;;;;;;5006759;28;20172;-74
2023/12/24 11:02:09;;;;;;;2.57;2.37;;;;;;;;;;5005460;28;20235;-74
2023/12/24 11:04:43;;;;;;;0.63;0.63;;;;;;;;;;5021762;28;20179;-75
2023/12/24 11:07:08;;;;;;;1.60;1.50;;;;;;;;;;5005994;28;20186;-78
2023/12/24 11:09:33;;;;;;;0.60;0.60;;;;;;;;;;5031623;28;20266;-78
2023/12/24 11:11:59;;;;;;;1.63;1.53;;;;;;;;;;5029875;28;20211;-79
2023/12/24 11:14:36;;;;;;;0.93;0.90;;;;;;;;;;5021235;28;20224;-77
2023/12/24 11:17:01;;;;;;;5.37;4.70;;;;;;;;;;5003957;28;20231;-79
2023/12/24 11:19:26;;;;;;;6.73;5.03;;;;;;;;;;5030634;28;20744;-79
2023/12/24 11:22:04;;;;;;;2.60;2.37;;;;;;;;;;5028256;28;20278;-78
2023/12/24 11:24:30;;;;;;;3.37;3.07;;;;;;;;;;5032203;28;20177;-79
2023/12/24 11:26:55;;;;;;;1.87;1.73;;;;;;;;;;5012375;28;20345;-79
2023/12/24 11:29:39;;;;;;;8.53;7.63;;;;;;;;;;5025043;28;20191;-79
2023/12/24 11:32:23;;;;;;;1.90;1.80;;;;;;;;;;5020353;28;20184;-79
2023/12/24 11:34:48;;;;;;;1.63;1.30;;;;;;;;;;5005792;28;20185;-78
2023/12/24 11:37:24;;;;;;;1.90;1.80;;;;;;;;;;5026686;28;20203;-79
2023/12/24 11:40:00;;;;;;;1.63;1.50;;;;;;;;;;5001895;28;20171;-80
2023/12/24 11:42:37;;;;;;;0.43;0.43;;;;;;;;;;5001295;28;20178;-79
2023/12/24 11:45:03;;;;;;;0.97;0.60;;;;;;;;;;5024655;28;20192;-79
2023/12/24 11:47:28;;;;;;;0.60;0.60;;;;;;;;;;5025327;28;20206;-79
2023/12/24 11:49:53;;;;;;;0.67;0.67;;;;;;;;;;5010678;28;20186;-80
2023/12/24 11:52:18;;;;;;;0.60;0.60;;;;;;;;;;5009150;28;20193;-78
2023/12/24 11:54:45;;;;;;;0.60;0.60;;;;;;;;;;5012152;28;20182;-80
2023/12/24 11:57:11;;;;;;;1.17;0.90;;;;;;;;;;5023084;28;20200;-79
2023/12/24 11:59:36;;;;;;;0.50;0.50;;;;;;;;;;5029737;28;20505;-79
2023/12/24 12:02:04;;;;;;;1.40;1.30;;;;;;;;;;5012442;28;20186;-79
2023/12/24 12:04:29;;;;;;;0.93;0.87;;;;;;;;;;5003876;28;20189;-80
2023/12/24 12:06:55;;;;;;;0.47;0.47;;;;;;;;;;5001004;28;20179;-78
2023/12/24 12:09:20;;;;;;;0.60;0.60;;;;;;;;;;5009178;28;20322;-80
2023/12/24 12:11:47;;;;;;;0.43;0.43;;;;;;;;;;5027880;28;20182;-78
2023/12/24 12:14:12;;;;;;;0.33;0.33;;;;;;;;;;5019963;28;20189;-79
2023/12/24 12:16:37;;;;;;;0.50;0.50;;;;;;;;;;5008833;28;20170;-79
2023/12/24 12:19:02;;;;;;;0.37;0.37;;;;;;;;;;5003386;28;20272;-79
2023/12/24 12:21:28;;;;;;;1.70;0.50;;;;;;;;;;5008173;28;20207;-79
2023/12/24 12:23:53;;;;;;;2.37;2.17;;;;;;;;;;5027415;28;20199;-80
2023/12/24 12:26:18;;;;;;;0.70;0.70;;;;;;;;;;5003778;28;20181;-80
2023/12/24 12:28:43;;;;;;;1.43;0.73;;;;;;;;;;5020950;28;20190;-80
2023/12/24 12:31:08;;;;;;;0.20;0.20;;;;;;;;;;5001741;28;20194;-80
2023/12/24 12:33:34;;;;;;;0.50;0.50;;;;;;;;;;5031094;28;20187;-80
2023/12/24 12:36:02;;;;;;;0.90;0.90;;;;;;;;;;5026989;28;20254;-80
2023/12/24 12:38:27;;;;;;;0.70;0.70;;;;;;;;;;5014486;28;20252;-78
2023/12/24 12:40:52;;;;;;;0.50;0.50;;;;;;;;;;5019655;28;20168;-80
2023/12/24 12:43:18;;;;;;;0.23;0.23;;;;;;;;;;5010764;28;20181;-78
2023/12/24 12:45:43;;;;;;;0.50;0.50;;;;;;;;;;5025393;28;20212;-80
2023/12/24 12:48:09;;;;;;;0.37;0.37;;;;;;;;;;5030897;28;20298;-80
2023/12/24 12:50:34;;;;;;;0.33;0.30;;;;;;;;;;5010071;28;20187;-79
2023/12/24 12:52:59;;;;;;;0.20;0.20;;;;;;;;;;5015966;28;20264;-79
2023/12/24 12:55:24;;;;;;;0.73;0.40;;;;;;;;;;5011864;28;20265;-80
2023/12/24 12:57:50;;;;;;;0.40;0.30;;;;;;;;;;5024213;28;20262;-77
2023/12/24 13:00:19;;;;;;;0.47;0.47;;;;;;;;;;5023592;28;20174;-72
2023/12/24 13:02:44;;;;;;;0.57;0.57;;;;;;;;;;5028692;28;20238;-72
2023/12/24 13:05:22;;;;;;;0.30;0.30;;;;;;;;;;5008007;28;20218;-72
2023/12/24 13:07:47;;;;;;;0.30;0.30;;;;;;;;;;5020067;28;20178;-72
2023/12/24 13:10:24;;;;;;;0.37;0.37;;;;;;;;;;5012359;28;20174;-73
2023/12/24 13:13:03;;;;;;;6.50;0.50;;;;;;;;;;5029321;28;20181;-72
2023/12/24 13:15:29;;;;;;;0.20;0.20;;;;;;;;;;5028713;28;20193;-72
2023/12/24 13:18:11;;;;;;;0.20;0.20;;;;;;;;;;5026469;28;20209;-73
2023/12/24 13:20:37;;;;;;;0.20;0.20;;;;;;;;;;5026080;28;20220;-72
2023/12/24 13:23:02;;;;;;;0.97;0.20;;;;;;;;;;5027338;28;20181;-73
2023/12/24 13:25:30;;;;;;;1.87;1.70;;;;;;;;;;5025618;28;20242;-72
2023/12/24 13:27:55;;;;;;;31.17;21.30;;;;;;;;;;5014942;28;20265;-73
2023/12/24 13:30:21;;;;;;;0.10;0.10;;;;;;;;;;5009547;28;20225;-72
2023/12/24 13:32:46;;;;;;;296.40;235.37;;;;;;;;;;5012387;28;20193;-72
2023/12/24 13:35:11;;;;;;;9.93;8.93;;;;;;;;;;5036484;28;20179;-72
2023/12/24 13:37:36;;;;;;;0.80;0.80;;;;;;;;;;5010224;28;20188;-73
2023/12/24 13:40:02;;;;;;;10.43;9.73;;;;;;;;;;5010985;28;20182;-72
2023/12/24 13:42:27;;;;;;;392.67;228.13;;;;;;;;;;5034292;28;20464;-73
2023/12/24 13:44:53;;;;;;;4.63;3.97;;;;;;;;;;5011155;28;20182;-72
2023/12/24 13:47:18;;;;;;;0.97;0.77;;;;;;;;;;5004689;28;20192;-73
2023/12/24 13:49:43;;;;;;;0.60;0.60;;;;;;;;;;5010516;28;20277;-73
2023/12/24 13:52:09;;;;;;;1.00;1.00;;;;;;;;;;5012617;28;20232;-73
2023/12/24 13:54:36;;;;;;;1.73;1.70;;;;;;;;;;5019400;28;20171;-72
2023/12/24 13:57:01;;;;;;;1.37;1.27;;;;;;;;;;5013076;28;20249;-73
2023/12/24 13:59:26;;;;;;;1.17;1.07;;;;;;;;;;5027026;28;20202;-73
2023/12/24 14:01:52;;;;;;;1.30;1.20;;;;;;;;;;5006778;28;20190;-72
2023/12/24 14:04:17;;;;;;;0.93;0.93;;;;;;;;;;5029926;28;20246;-73
2023/12/24 14:06:43;;;;;;;2.40;2.23;;;;;;;;;;5017810;28;20178;-72
2023/12/24 14:09:09;;;;;;;1.30;1.20;;;;;;;;;;5022442;28;20266;-73
2023/12/24 14:11:35;;;;;;;0.50;0.47;;;;;;;;;;5010847;28;20182;-72
2023/12/24 14:14:01;;;;;;;0.60;0.60;;;;;;;;;;5017173;28;20186;-72
2023/12/24 14:16:26;;;;;;;0.90;0.90;;;;;;;;;;5031311;28;20182;-72
2023/12/24 14:18:53;;;;;;;0.73;0.73;;;;;;;;;;5029338;28;20232;-72
2023/12/24 14:21:19;;;;;;;0.30;0.30;;;;;;;;;;5007281;28;20294;-72
2023/12/24 14:23:44;;;;;;;96.13;90.60;;;;;;;;;;5011909;28;20187;-72
2023/12/24 14:26:09;;;;;;;93.63;88.37;;;;;;;;;;5018678;28;20174;-72
2023/12/24 14:28:34;;;;;;;0.40;0.40;;;;;;;;;;5027728;28;20199;-72
2023/12/24 14:30:59;;;;;;;0.60;0.60;;;;;;;;;;5027548;28;20176;-72
2023/12/24 14:33:25;;;;;;;0.90;0.90;;;;;;;;;;5030089;28;20174;-72
2023/12/24 14:35:50;;;;;;;20.53;19.83;;;;;;;;;;5023257;28;20180;-72